Time;durP1;ratioP1;P1;durP2;ratioP2;P2;SDS_P1;SDS_P2;PMS_P1;PMS_P2;Temp;Humidity;BMP_temperature;BMP_pressure;BME280_temperature;BME280_humidity;BME280_pressure;Samples;Min_cycle;Max_cycle;Signal;HPM_P1;HPM_P2
2022/06/18 00:01:33;;;;;;;4.30;4.10;;;18.90;99.90;;;;;;5080458;28;20200;-55
2022/06/18 00:04:02;;;;;;;3.63;3.53;;;18.90;99.90;;;;;;5081937;28;20207;-55
2022/06/18 00:06:33;;;;;;;3.93;3.63;;;18.80;99.90;;;;;;5084746;28;20729;-55
2022/06/18 00:09:01;;;;;;;3.80;3.50;;;18.80;99.90;;;;;;5086535;28;20697;-55
2022/06/18 00:14:13;;;;;;;4.63;3.93;;;18.70;99.90;;;;;;5083892;28;20270;-55
2022/06/18 00:16:40;;;;;;;3.03;2.93;;;18.70;99.90;;;;;;5082961;28;20303;-55
2022/06/18 00:19:07;;;;;;;3.53;3.10;;;18.70;99.90;;;;;;5085525;28;20192;-56
2022/06/18 00:21:35;;;;;;;2.97;2.87;;;18.60;99.90;;;;;;5089804;28;20192;-55
2022/06/18 00:24:03;;;;;;;3.00;2.80;;;18.60;99.90;;;;;;5087730;28;20212;-55
2022/06/18 00:26:30;;;;;;;2.77;2.70;;;18.60;99.90;;;;;;5079836;28;20220;-55
2022/06/18 00:28:57;;;;;;;3.90;2.73;;;18.60;99.90;;;;;;5083984;28;20212;-55
2022/06/18 00:31:23;;;;;;;3.07;2.77;;;18.70;99.90;;;;;;5086769;28;20200;-55
2022/06/18 00:33:50;;;;;;;3.17;2.93;;;18.60;99.90;;;;;;5086484;28;20208;-55
2022/06/18 00:36:19;;;;;;;1.97;1.97;;;18.70;99.90;;;;;;5093386;28;20219;-55
2022/06/18 00:38:49;;;;;;;3.23;2.40;;;18.70;99.90;;;;;;5084926;28;20291;-55
2022/06/18 00:41:20;;;;;;;2.57;2.43;;;18.70;99.90;;;;;;5089112;28;20574;-55
2022/06/18 00:43:51;;;;;;;2.47;2.37;;;18.70;99.90;;;;;;5086563;28;20203;-55
2022/06/18 00:46:25;;;;;;;2.43;2.40;;;18.70;99.90;;;;;;5094348;28;20239;-55
2022/06/18 00:49:00;;;;;;;2.37;2.17;;;18.70;99.90;;;;;;5081945;28;20227;-55
2022/06/18 00:51:32;;;;;;;3.90;2.77;;;18.70;99.90;;;;;;5086516;28;20262;-55
2022/06/18 00:54:07;;;;;;;2.47;1.80;;;18.80;99.90;;;;;;5090251;28;20196;-55
2022/06/18 00:56:39;;;;;;;1.97;1.77;;;18.80;99.90;;;;;;5102172;22;20285;-49
2022/06/18 00:59:14;;;;;;;2.40;2.20;;;18.70;99.90;;;;;;5052035;28;20224;-49
2022/06/18 01:01:45;;;;;;;2.17;2.00;;;18.70;99.90;;;;;;5049276;28;20271;-49
2022/06/18 01:04:24;;;;;;;2.57;2.37;;;18.70;99.90;;;;;;5046262;28;20198;-49
2022/06/18 01:06:57;;;;;;;1.87;1.77;;;18.60;99.90;;;;;;5050796;28;20221;-48
2022/06/18 01:09:25;;;;;;;2.57;2.47;;;18.70;99.90;;;;;;5052573;28;20218;-49
2022/06/18 01:11:54;;;;;;;2.73;2.63;;;18.60;99.90;;;;;;5048268;28;20202;-49
2022/06/18 01:14:21;;;;;;;3.03;2.80;;;18.60;99.90;;;;;;5042408;28;20669;-49
2022/06/18 01:16:48;;;;;;;2.70;2.50;;;18.60;99.90;;;;;;5049801;28;20218;-48
2022/06/18 01:19:20;;;;;;;2.37;2.27;;;18.60;99.90;;;;;;5048321;28;20664;-49
2022/06/18 01:21:55;;;;;;;2.57;2.47;;;18.60;99.90;;;;;;5050557;28;20233;-49
2022/06/18 01:24:32;;;;;;;2.47;2.37;;;18.60;99.90;;;;;;5048601;28;20572;-49
2022/06/18 01:27:00;;;;;;;2.60;2.47;;;18.60;99.90;;;;;;5051095;28;20225;-49
2022/06/18 01:29:27;;;;;;;2.67;2.43;;;18.50;99.90;;;;;;5045334;28;20218;-49
2022/06/18 01:31:56;;;;;;;2.63;2.53;;;18.50;99.90;;;;;;5053216;28;20202;-49
2022/06/18 01:34:23;;;;;;;3.30;2.53;;;18.40;99.90;;;;;;5044733;28;20289;-49
2022/06/18 01:36:52;;;;;;;2.93;2.60;;;18.40;99.90;;;;;;5039208;28;20218;-49
2022/06/18 01:39:30;;;;;;;2.60;2.50;;;18.50;99.90;;;;;;5044976;28;20762;-49
2022/06/18 01:42:02;;;;;;;2.60;2.50;;;18.50;99.90;;;;;;5040061;28;20675;-49
2022/06/18 01:44:35;;;;;;;2.43;2.33;;;18.40;99.90;;;;;;5049638;28;20206;-49
2022/06/18 01:47:06;;;;;;;2.13;1.87;;;18.40;99.90;;;;;;5050537;28;20275;-49
2022/06/18 01:49:37;;;;;;;3.77;3.57;;;18.40;99.90;;;;;;5045104;28;20287;-48
2022/06/18 01:52:08;;;;;;;3.43;2.70;;;18.50;99.90;;;;;;5037567;28;20210;-49
2022/06/18 01:54:42;;;;;;;3.37;3.13;;;18.50;99.90;;;;;;5045957;28;20575;-49
2022/06/18 01:57:15;;;;;;;3.83;3.63;;;18.30;99.90;;;;;;5046059;28;20230;-49
2022/06/18 01:59:47;;;;;;;3.57;3.47;;;18.30;99.90;;;;;;5045078;28;20190;-49
2022/06/18 02:02:15;;;;;;;3.93;3.70;;;18.20;99.90;;;;;;5050394;28;20624;-49
2022/06/18 02:04:43;;;;;;;4.10;3.50;;;18.10;99.90;;;;;;5045660;28;20236;-49
2022/06/18 02:07:10;;;;;;;4.87;3.67;;;18.10;99.90;;;;;;5043774;28;20224;-49
2022/06/18 02:09:43;;;;;;;4.20;4.00;;;18.10;99.90;;;;;;5040223;28;20776;-49
2022/06/18 02:12:16;;;;;;;4.77;4.37;;;18.10;99.90;;;;;;5049553;28;20202;-49
2022/06/18 02:14:48;;;;;;;4.83;4.53;;;18.00;99.90;;;;;;5045366;28;20202;-49
2022/06/18 02:17:18;;;;;;;4.27;3.97;;;18.10;99.90;;;;;;5048168;28;20226;-49
2022/06/18 02:19:49;;;;;;;4.67;4.37;;;18.00;99.90;;;;;;5047056;28;20218;-49
2022/06/18 02:22:17;;;;;;;4.73;3.83;;;18.00;99.90;;;;;;5042143;28;20206;-49
2022/06/18 02:24:44;;;;;;;4.20;3.90;;;17.90;99.90;;;;;;5045131;28;20229;-49
2022/06/18 02:27:16;;;;;;;4.43;4.23;;;17.80;99.90;;;;;;5037727;28;20213;-49
2022/06/18 02:29:45;;;;;;;4.07;3.83;;;17.80;99.90;;;;;;5053301;28;20713;-49
2022/06/18 02:32:21;;;;;;;3.80;3.50;;;17.80;99.90;;;;;;5033496;28;20202;-48
2022/06/18 02:34:49;;;;;;;3.57;3.47;;;17.70;99.90;;;;;;5033305;28;20206;-48
2022/06/18 02:37:24;;;;;;;3.50;3.30;;;17.70;99.90;;;;;;5051101;28;20245;-49
2022/06/18 02:39:56;;;;;;;3.27;3.00;;;17.60;99.90;;;;;;5043994;28;20247;-49
2022/06/18 02:42:24;;;;;;;4.07;3.20;;;17.60;99.90;;;;;;5043788;28;20263;-49
2022/06/18 02:44:52;;;;;;;3.20;3.10;;;17.60;99.90;;;;;;5053293;28;20588;-49
2022/06/18 02:47:21;;;;;;;2.90;2.80;;;17.50;99.90;;;;;;5052554;28;20246;-49
2022/06/18 02:49:55;;;;;;;3.17;3.07;;;17.50;99.90;;;;;;5042418;28;20304;-49
2022/06/18 02:52:26;;;;;;;3.10;3.00;;;17.40;99.90;;;;;;5040817;28;20194;-49
2022/06/18 02:55:00;;;;;;;2.17;2.10;;;17.40;99.90;;;;;;5047661;28;20252;-49
2022/06/18 02:57:29;;;;;;;2.63;2.53;;;17.40;99.90;;;;;;5047142;28;20294;-49
2022/06/18 02:59:57;;;;;;;2.40;2.30;;;17.40;99.90;;;;;;5050203;28;20745;-49
2022/06/18 03:02:23;;;;;;;3.30;2.30;;;17.40;99.90;;;;;;5041097;28;20213;-49
2022/06/18 03:04:51;;;;;;;2.40;2.30;;;17.30;99.90;;;;;;5045418;28;20201;-49
2022/06/18 03:07:18;;;;;;;3.93;2.17;;;17.30;99.90;;;;;;5046671;28;20226;-49
2022/06/18 03:12:45;;;;;;;2.83;2.73;;;17.40;99.90;;;;;;4954825;28;20200;-49
2022/06/18 03:15:12;;;;;;;1.90;1.90;;;17.40;99.90;;;;;;4944712;29;20248;-49
2022/06/18 03:17:39;;;;;;;2.33;2.27;;;17.30;99.90;;;;;;4986854;28;20635;-49
2022/06/18 03:20:11;;;;;;;3.07;2.97;;;17.40;99.90;;;;;;5032685;28;20252;-49
2022/06/18 03:22:38;;;;;;;2.23;2.13;;;17.40;99.90;;;;;;5040577;28;20237;-48
2022/06/18 03:25:06;;;;;;;2.87;2.77;;;17.50;99.90;;;;;;5040664;28;20193;-49
2022/06/18 03:27:33;;;;;;;4.37;4.03;;;17.40;99.90;;;;;;5044977;28;20222;-48
2022/06/18 03:30:04;;;;;;;4.20;3.73;;;17.30;99.90;;;;;;5040740;28;20218;-48
2022/06/18 03:32:32;;;;;;;3.30;3.20;;;17.30;99.90;;;;;;5049442;28;20221;-48
2022/06/18 03:34:59;;;;;;;3.70;3.50;;;17.30;99.90;;;;;;5040620;28;20729;-49
2022/06/18 03:37:26;;;;;;;4.00;3.70;;;17.30;99.90;;;;;;5050640;28;20625;-49
2022/06/18 03:39:53;;;;;;;3.50;3.30;;;17.30;99.90;;;;;;5045904;28;20194;-49
2022/06/18 03:42:20;;;;;;;3.63;3.37;;;17.30;99.90;;;;;;5049758;28;20205;-49
2022/06/18 03:44:47;;;;;;;3.07;2.97;;;17.30;99.90;;;;;;5042153;28;20210;-49
2022/06/18 03:47:16;;;;;;;3.37;3.17;;;17.40;99.90;;;;;;5031423;28;20221;-49
2022/06/18 03:49:43;;;;;;;3.10;3.00;;;17.40;99.90;;;;;;5040212;28;20229;-49
2022/06/18 03:52:11;;;;;;;3.30;3.20;;;17.50;99.90;;;;;;5046639;28;20834;-48
2022/06/18 03:54:38;;;;;;;3.93;3.47;;;17.40;99.90;;;;;;5030119;28;20332;-49
2022/06/18 03:57:06;;;;;;;3.70;3.60;;;17.40;99.90;;;;;;5048831;28;20229;-49
2022/06/18 03:59:34;;;;;;;3.00;2.80;;;17.50;99.90;;;;;;5050528;28;20563;-49
2022/06/18 04:02:01;;;;;;;3.90;3.67;;;17.50;99.90;;;;;;5047724;28;20772;-50
2022/06/18 04:04:29;;;;;;;3.57;3.47;;;17.60;99.90;;;;;;5040356;28;20207;-48
2022/06/18 04:06:57;;;;;;;4.33;3.90;;;17.60;99.90;;;;;;5047466;28;20419;-49
2022/06/18 04:09:27;;;;;;;4.13;3.83;;;17.50;99.90;;;;;;5031323;28;20225;-48
2022/06/18 04:11:54;;;;;;;3.50;3.40;;;17.50;99.90;;;;;;5042487;28;20202;-49
2022/06/18 04:14:21;;;;;;;2.80;2.70;;;17.50;99.90;;;;;;5040446;28;20206;-49
2022/06/18 04:16:48;;;;;;;3.83;3.63;;;17.60;99.90;;;;;;5042380;28;20265;-49
2022/06/18 04:19:15;;;;;;;3.67;3.57;;;17.70;99.90;;;;;;5043368;28;20609;-49
2022/06/18 04:21:43;;;;;;;3.70;3.57;;;17.80;99.90;;;;;;5049568;28;20251;-49
2022/06/18 04:24:10;;;;;;;3.77;3.60;;;17.80;99.90;;;;;;5040329;28;20664;-49
2022/06/18 04:26:37;;;;;;;3.77;3.50;;;17.90;99.90;;;;;;5047913;28;20629;-49
2022/06/18 04:29:04;;;;;;;3.60;3.43;;;18.00;99.90;;;;;;5047580;28;20221;-49
2022/06/18 04:31:31;;;;;;;3.57;3.43;;;18.10;99.90;;;;;;5043277;28;20295;-49
2022/06/18 04:33:58;;;;;;;3.20;3.10;;;18.20;99.90;;;;;;5046201;28;20198;-49
2022/06/18 04:36:34;;;;;;;3.53;3.23;;;18.30;99.90;;;;;;5036894;28;20256;-49
2022/06/18 04:39:04;;;;;;;2.90;2.80;;;18.30;99.90;;;;;;5031198;28;20644;-48
2022/06/18 04:41:31;;;;;;;4.77;4.37;;;18.40;99.90;;;;;;5040667;28;20722;-49
2022/06/18 04:44:03;;;;;;;3.03;2.83;;;18.50;99.90;;;;;;5047682;28;20268;-49
2022/06/18 04:46:30;;;;;;;3.73;3.60;;;18.60;99.90;;;;;;5046720;28;20590;-49
2022/06/18 04:48:58;;;;;;;2.97;2.87;;;18.80;99.90;;;;;;5045838;28;20225;-49
2022/06/18 04:51:25;;;;;;;3.07;2.80;;;18.90;99.90;;;;;;5043173;28;20206;-49
2022/06/18 04:53:52;;;;;;;3.60;3.30;;;19.10;99.90;;;;;;5040772;28;20594;-49
2022/06/18 04:56:20;;;;;;;3.10;2.90;;;19.40;99.90;;;;;;5047000;28;20208;-48
2022/06/18 04:58:47;;;;;;;3.10;2.80;;;19.50;99.90;;;;;;5041413;28;20206;-49
2022/06/18 05:01:17;;;;;;;2.93;2.73;;;19.80;99.90;;;;;;5044924;28;20549;-49
2022/06/18 05:03:44;;;;;;;2.70;2.50;;;19.90;99.90;;;;;;5041995;28;20190;-49
2022/06/18 05:06:11;;;;;;;3.20;3.10;;;20.10;99.90;;;;;;5039268;28;20200;-49
2022/06/18 05:08:39;;;;;;;2.77;2.67;;;20.50;99.90;;;;;;5036225;28;20223;-49
2022/06/18 05:11:06;;;;;;;2.97;2.87;;;20.70;99.90;;;;;;5042185;28;20314;-49
2022/06/18 05:13:35;;;;;;;3.20;3.00;;;21.20;99.90;;;;;;5040989;28;20202;-49
2022/06/18 05:16:02;;;;;;;3.63;2.83;;;21.70;99.90;;;;;;5043365;28;20203;-49
2022/06/18 05:18:33;;;;;;;2.67;2.30;;;22.40;99.90;;;;;;5041035;28;20221;-49
2022/06/18 05:21:01;;;;;;;2.20;2.00;;;23.30;99.90;;;;;;5048332;28;20657;-49
2022/06/18 05:23:28;;;;;;;2.70;2.60;;;23.70;99.90;;;;;;5052450;28;20194;-49
2022/06/18 05:25:57;;;;;;;2.87;2.67;;;24.30;99.90;;;;;;5043902;28;20202;-49
2022/06/18 05:28:25;;;;;;;2.27;2.07;;;24.40;99.90;;;;;;5046682;28;20273;-49
2022/06/18 05:30:53;;;;;;;1.93;1.90;;;24.90;99.90;;;;;;5038719;28;20217;-50
2022/06/18 05:33:21;;;;;;;2.53;2.33;;;25.30;99.90;;;;;;5043247;28;20193;-49
2022/06/18 05:35:48;;;;;;;3.83;2.40;;;25.90;99.70;;;;;;5053031;28;20198;-49
2022/06/18 05:38:17;;;;;;;2.80;2.70;;;26.20;97.30;;;;;;5051652;28;20225;-49
2022/06/18 05:40:45;;;;;;;2.70;2.60;;;26.20;97.70;;;;;;5051436;28;20194;-49
2022/06/18 05:43:12;;;;;;;2.43;2.33;;;26.20;97.20;;;;;;5045259;28;20202;-49
2022/06/18 05:45:39;;;;;;;2.33;2.20;;;26.10;97.10;;;;;;5044486;28;20203;-50
2022/06/18 05:48:10;;;;;;;2.33;2.22;;;26.40;98.40;;;;;;5043295;28;20463;-49
2022/06/18 05:50:37;;;;;;;4.15;2.35;;;26.60;96.30;;;;;;5050209;28;20319;-50
2022/06/18 05:53:04;;;;;;;2.47;2.37;;;27.20;95.50;;;;;;5045438;28;20212;-50
2022/06/18 05:55:31;;;;;;;2.75;2.65;;;27.50;94.30;;;;;;5035828;28;20277;-50
2022/06/18 05:57:59;;;;;;;4.82;2.15;;;27.30;94.40;;;;;;5049470;28;20226;-50
2022/06/18 06:00:31;;;;;;;2.23;2.23;;;27.90;95.00;;;;;;5048540;28;20194;-50
2022/06/18 06:02:58;;;;;;;2.50;2.30;;;28.50;94.50;;;;;;5055575;28;20206;-50
2022/06/18 06:05:27;;;;;;;2.42;2.15;;;28.70;95.00;;;;;;5049309;28;20206;-50
2022/06/18 06:07:54;;;;;;;4.22;2.33;;;28.80;93.80;;;;;;5049717;28;20224;-50
2022/06/18 06:13:10;;;;;;;2.03;1.80;;;29.20;93.00;;;;;;5048292;28;20213;-49
2022/06/18 06:15:38;;;;;;;1.83;1.83;;;29.70;93.20;;;;;;5039606;28;20598;-50
2022/06/18 06:18:05;;;;;;;4.18;2.45;;;29.90;92.70;;;;;;5039417;28;20653;-50
2022/06/18 06:20:38;;;;;;;3.13;2.85;;;29.90;94.20;;;;;;5038247;28;20199;-50
2022/06/18 06:23:05;;;;;;;2.85;2.40;;;29.70;94.60;;;;;;5048457;28;20252;-50
2022/06/18 06:25:32;;;;;;;3.45;3.25;;;30.30;94.70;;;;;;5045522;28;20275;-50
2022/06/18 06:27:59;;;;;;;5.43;3.30;;;30.40;93.40;;;;;;5041490;28;20300;-50
2022/06/18 06:30:27;;;;;;;2.83;2.63;;;30.40;93.10;;;;;;5037023;28;20228;-50
2022/06/18 06:32:55;;;;;;;2.25;2.25;;;30.00;92.70;;;;;;5044934;28;20281;-50
2022/06/18 06:35:22;;;;;;;3.00;2.70;;;30.40;93.40;;;;;;5043821;28;20213;-50
2022/06/18 06:37:51;;;;;;;2.35;2.25;;;30.00;91.10;;;;;;5039221;28;20699;-50
2022/06/18 06:40:18;;;;;;;5.43;2.90;;;30.30;93.00;;;;;;5041590;28;20719;-50
2022/06/18 06:42:47;;;;;;;5.03;2.78;;;30.40;92.30;;;;;;5043446;28;20198;-50
2022/06/18 06:45:18;;;;;;;2.70;2.47;;;30.60;90.30;;;;;;5043867;28;20210;-50
2022/06/18 06:47:45;;;;;;;3.28;3.00;;;30.30;90.60;;;;;;5044963;28;20375;-50
2022/06/18 06:50:15;;;;;;;2.55;2.35;;;30.30;92.90;;;;;;5044344;28;20723;-50
2022/06/18 06:52:42;;;;;;;3.97;2.42;;;30.40;92.40;;;;;;5049305;28;20198;-50
2022/06/18 06:58:00;;;;;;;2.80;2.60;;;29.90;90.30;;;;;;5088046;22;20231;-55
2022/06/18 07:00:27;;;;;;;4.15;2.50;;;30.20;91.40;;;;;;5067198;28;20235;-55
2022/06/18 07:02:54;;;;;;;2.80;2.55;;;30.00;91.50;;;;;;5070099;28;20205;-55
2022/06/18 07:05:21;;;;;;;2.45;2.35;;;30.40;91.60;;;;;;5062256;28;20659;-55
2022/06/18 07:07:48;;;;;;;2.25;2.03;;;30.70;91.30;;;;;;5064725;28;20312;-55
2022/06/18 07:10:16;;;;;;;2.55;2.45;;;31.60;90.50;;;;;;5070882;28;20259;-55
2022/06/18 07:12:44;;;;;;;2.97;2.88;;;31.80;90.20;;;;;;5063614;28;20201;-55
2022/06/18 07:15:12;;;;;;;6.18;2.40;;;31.60;87.10;;;;;;5070312;28;20205;-55
2022/06/18 07:17:40;;;;;;;2.42;2.33;;;31.20;89.00;;;;;;5063758;28;20290;-55
2022/06/18 07:20:10;;;;;;;2.28;2.03;;;31.80;88.00;;;;;;5067083;28;20205;-55
2022/06/18 07:22:37;;;;;;;2.88;2.30;;;32.20;85.70;;;;;;5064889;28;21803;-55
2022/06/18 07:25:06;;;;;;;10.43;3.72;;;32.00;87.80;;;;;;5062805;28;20701;-55
2022/06/18 07:27:35;;;;;;;2.85;2.72;;;32.20;84.30;;;;;;5061959;28;20275;-55
2022/06/18 07:30:03;;;;;;;2.45;2.25;;;32.10;86.30;;;;;;5059536;28;20339;-55
2022/06/18 07:32:30;;;;;;;19.88;4.18;;;32.40;85.50;;;;;;5063203;28;20732;-55
2022/06/18 07:34:57;;;;;;;4.00;2.33;;;33.10;84.70;;;;;;5060838;28;20205;-55
2022/06/18 07:37:25;;;;;;;2.83;2.65;;;33.10;84.20;;;;;;5065639;28;20275;-55
2022/06/18 07:39:53;;;;;;;2.95;2.20;;;33.00;83.20;;;;;;5063724;28;20254;-55
2022/06/18 07:42:22;;;;;;;7.72;2.60;;;32.80;83.20;;;;;;5059294;28;20209;-55
2022/06/18 07:44:51;;;;;;;2.97;2.78;;;32.80;81.60;;;;;;5055708;28;20246;-55
2022/06/18 07:47:20;;;;;;;7.72;3.38;;;32.40;83.90;;;;;;5058990;28;20267;-55
2022/06/18 07:49:47;;;;;;;2.78;2.58;;;32.80;87.90;;;;;;5057124;28;20205;-56
2022/06/18 07:52:16;;;;;;;3.95;2.95;;;33.40;88.30;;;;;;5058013;28;20817;-56
2022/06/18 07:54:43;;;;;;;9.43;2.85;;;34.00;84.70;;;;;;5058678;28;22100;-55
2022/06/18 07:57:11;;;;;;;3.53;3.22;;;34.40;83.90;;;;;;5059018;28;20340;-56
2022/06/18 07:59:39;;;;;;;36.85;6.35;;;34.50;82.90;;;;;;5060329;28;20251;-55
2022/06/18 08:02:08;;;;;;;30.33;3.50;;;33.90;81.50;;;;;;5058879;28;20208;-55
2022/06/18 08:04:35;;;;;;;2.95;2.72;;;34.40;82.80;;;;;;5057386;28;20292;-55
2022/06/18 08:07:02;;;;;;;7.60;3.00;;;34.50;82.00;;;;;;5056173;28;20772;-55
2022/06/18 08:09:29;;;;;;;13.13;4.38;;;34.60;81.30;;;;;;5057788;28;20201;-56
2022/06/18 08:11:56;;;;;;;23.20;5.80;;;34.70;80.10;;;;;;5057220;28;20233;-55
2022/06/18 08:14:24;;;;;;;5.05;2.47;;;34.60;81.70;;;;;;5058503;28;20665;-55
2022/06/18 08:16:51;;;;;;;3.90;2.95;;;34.90;81.60;;;;;;5056276;28;20201;-56
2022/06/18 08:19:19;;;;;;;3.13;1.98;;;34.50;75.80;;;;;;5066745;28;20194;-56
2022/06/18 08:21:46;;;;;;;2.55;1.90;;;34.60;81.10;;;;;;5059349;28;20197;-56
2022/06/18 08:24:20;;;;;;;1.23;1.23;;;34.70;78.30;;;;;;5064743;28;20254;-56
2022/06/18 08:26:55;;;;;;;8.52;1.85;;;35.30;75.40;;;;;;5062757;28;20205;-56
2022/06/18 08:29:24;;;;;;;2.53;1.58;;;35.60;77.30;;;;;;5060524;28;20797;-56
2022/06/18 08:31:51;;;;;;;2.55;1.80;;;36.00;80.10;;;;;;5065546;28;20286;-56
2022/06/18 08:34:21;;;;;;;3.50;2.55;;;35.70;77.70;;;;;;5058822;28;20204;-55
2022/06/18 08:36:48;;;;;;;1.80;1.77;;;35.50;73.00;;;;;;5062093;28;20572;-55
2022/06/18 08:39:19;;;;;;;1.55;1.40;;;34.80;73.80;;;;;;5066642;28;21263;-57
2022/06/18 08:41:59;;;;;;;4.70;2.15;;;35.20;79.40;;;;;;5056274;28;20201;-56
2022/06/18 08:44:42;;;;;;;7.38;3.78;;;35.40;78.50;;;;;;5056664;28;20205;-55
2022/06/18 08:47:22;;;;;;;2.30;1.90;;;35.20;72.70;;;;;;5061658;28;20243;-55
2022/06/18 08:50:06;;;;;;;1.85;1.75;;;35.30;75.90;;;;;;5055313;28;20205;-55
2022/06/18 08:53:03;;;;;;;5.75;2.00;;;34.70;71.60;;;;;;5060544;28;20612;-56
2022/06/18 08:55:42;;;;;;;2.13;1.83;;;34.80;71.30;;;;;;5072911;28;20282;-55
2022/06/18 08:58:15;;;;;;;2.58;1.70;;;35.20;78.10;;;;;;5068700;28;20224;-55
2022/06/18 09:00:51;;;;;;;1.90;1.90;;;35.20;76.60;;;;;;5065824;28;20189;-57
2022/06/18 09:03:23;;;;;;;2.60;2.60;;;35.00;79.90;;;;;;5072164;28;20283;-57
2022/06/18 09:06:04;;;;;;;2.13;2.13;;;34.90;80.90;;;;;;5071980;28;20205;-57
2022/06/18 09:08:45;;;;;;;2.45;2.28;;;35.30;77.10;;;;;;5070782;28;20710;-57
2022/06/18 09:11:27;;;;;;;2.17;2.10;;;35.70;78.20;;;;;;5066363;28;20209;-57
2022/06/18 09:14:01;;;;;;;3.75;2.78;;;35.80;83.00;;;;;;5070360;28;20248;-57
2022/06/18 09:16:35;;;;;;;3.53;2.33;;;35.80;76.30;;;;;;5063806;28;20229;-57
2022/06/18 09:19:07;;;;;;;2.47;2.38;;;35.60;75.90;;;;;;5065499;28;20639;-57
2022/06/18 09:21:40;;;;;;;2.65;2.58;;;35.80;78.80;;;;;;5068891;28;20197;-57
2022/06/18 09:24:10;;;;;;;2.67;1.95;;;35.90;80.60;;;;;;5071526;28;20678;-57
2022/06/18 09:26:41;;;;;;;1.95;1.83;;;36.10;80.50;;;;;;5062455;28;20201;-55
2022/06/18 09:29:16;;;;;;;2.72;2.15;;;36.20;72.20;;;;;;5061423;28;20298;-57
2022/06/18 09:31:48;;;;;;;2.13;2.03;;;35.90;74.20;;;;;;5062022;28;20216;-56
2022/06/18 09:34:21;;;;;;;2.10;2.10;;;36.00;75.30;;;;;;5061962;28;20212;-56
2022/06/18 09:36:54;;;;;;;1.90;1.55;;;35.80;72.10;;;;;;5060121;28;20201;-57
2022/06/18 09:39:25;;;;;;;2.45;2.38;;;36.10;78.80;;;;;;5063415;28;20258;-57
2022/06/18 09:41:58;;;;;;;2.17;2.08;;;36.50;68.70;;;;;;5061726;28;20258;-56
2022/06/18 09:44:34;;;;;;;2.22;2.08;;;36.30;78.10;;;;;;5066978;28;20284;-56
2022/06/18 09:47:06;;;;;;;2.08;2.08;;;36.50;76.50;;;;;;5065240;28;21191;-57
2022/06/18 09:49:33;;;;;;;1.98;1.88;;;36.20;75.50;;;;;;5062095;28;20567;-57
2022/06/18 09:52:07;;;;;;;2.03;1.92;;;36.10;69.00;;;;;;5062925;28;20519;-56
2022/06/18 09:54:38;;;;;;;3.78;1.73;;;36.00;71.40;;;;;;5058637;28;20293;-56
2022/06/18 09:57:06;;;;;;;1.83;1.10;;;36.10;70.90;;;;;;5058068;28;20298;-56
2022/06/18 09:59:38;;;;;;;1.10;1.10;;;35.90;68.40;;;;;;5062230;28;20201;-57
2022/06/18 10:02:17;;;;;;;1.95;1.00;;;36.00;66.90;;;;;;5060624;28;20197;-56
2022/06/18 10:07:34;;;;;;;1.92;1.60;;;36.90;71.70;;;;;;5057554;28;20220;-56
2022/06/18 10:10:05;;;;;;;1.80;1.02;;;36.70;72.80;;;;;;5060624;28;20236;-56
2022/06/18 10:12:36;;;;;;;1.40;1.40;;;36.50;77.10;;;;;;5059325;28;20247;-56
2022/06/18 10:15:05;;;;;;;2.15;1.58;;;36.70;76.60;;;;;;5059453;28;20237;-56
2022/06/18 10:17:48;;;;;;;1.58;1.58;;;36.90;77.80;;;;;;5062297;28;20225;-57
2022/06/18 10:20:25;;;;;;;1.83;1.50;;;37.00;74.80;;;;;;5059123;28;20716;-56
2022/06/18 10:23:03;;;;;;;1.42;1.30;;;36.90;72.80;;;;;;5063613;28;20612;-57
2022/06/18 10:25:36;;;;;;;1.55;1.20;;;36.80;71.40;;;;;;5062575;28;20234;-55
2022/06/18 10:28:13;;;;;;;5.20;1.75;;;37.00;68.20;;;;;;5066005;28;20262;-57
2022/06/18 10:30:49;;;;;;;1.25;1.20;;;37.30;69.30;;;;;;5063806;28;22174;-57
2022/06/18 10:33:28;;;;;;;1.60;1.50;;;37.40;69.20;;;;;;5063286;28;20209;-57
2022/06/18 10:36:06;;;;;;;1.95;1.60;;;37.50;74.50;;;;;;5065564;28;20212;-57
2022/06/18 10:38:53;;;;;;;1.25;1.25;;;37.70;72.10;;;;;;5061298;28;20800;-57
2022/06/18 10:41:27;;;;;;;1.48;1.48;;;37.60;68.60;;;;;;5062641;28;20193;-55
2022/06/18 10:44:12;;;;;;;1.50;1.50;;;37.20;71.80;;;;;;5064881;28;20246;-57
2022/06/18 10:46:39;;;;;;;1.52;1.52;;;36.30;71.20;;;;;;5063941;28;20205;-55
2022/06/18 10:49:07;;;;;;;1.88;1.77;;;36.70;70.10;;;;;;5069086;28;20197;-55
2022/06/18 10:51:43;;;;;;;1.85;1.48;;;36.30;75.50;;;;;;5069804;28;20318;-55
2022/06/18 10:54:12;;;;;;;1.75;1.67;;;36.40;72.70;;;;;;5067708;28;20207;-55
2022/06/18 10:56:51;;;;;;;1.70;1.45;;;36.10;70.80;;;;;;5067486;28;20201;-57
2022/06/18 10:59:29;;;;;;;2.55;2.08;;;35.50;74.90;;;;;;5066320;28;20204;-55
2022/06/18 11:01:56;;;;;;;1.80;1.70;;;35.00;63.20;;;;;;5070703;28;20373;-56
2022/06/18 11:04:26;;;;;;;1.60;1.60;;;34.80;66.00;;;;;;5068332;28;20200;-55
2022/06/18 11:06:57;;;;;;;1.63;1.63;;;34.70;72.20;;;;;;5062023;28;20263;-57
2022/06/18 11:09:28;;;;;;;2.00;1.88;;;34.40;68.10;;;;;;5069325;28;20225;-57
2022/06/18 11:12:00;;;;;;;2.40;2.17;;;34.70;67.50;;;;;;5068049;28;20221;-57
2022/06/18 11:14:33;;;;;;;3.45;2.95;;;34.70;80.10;;;;;;5067638;28;20193;-55
2022/06/18 11:17:02;;;;;;;3.92;3.70;;;34.60;88.00;;;;;;5064836;28;20220;-54
2022/06/18 11:19:33;;;;;;;3.50;3.35;;;33.90;86.10;;;;;;5068418;28;20193;-54
2022/06/18 11:22:11;;;;;;;4.03;3.83;;;33.20;85.70;;;;;;5064514;28;20295;-54
2022/06/18 11:24:45;;;;;;;3.58;3.08;;;33.00;90.70;;;;;;5070054;28;20217;-54
2022/06/18 11:27:17;;;;;;;4.10;4.00;;;32.90;90.40;;;;;;5065160;28;20216;-55
2022/06/18 11:29:49;;;;;;;3.78;3.60;;;33.20;89.50;;;;;;5067890;28;20201;-55
2022/06/18 11:32:22;;;;;;;3.90;3.60;;;33.20;93.30;;;;;;5062784;28;20301;-54
2022/06/18 11:34:52;;;;;;;3.35;3.25;;;33.00;91.70;;;;;;5061662;28;20295;-57
2022/06/18 11:37:22;;;;;;;3.58;3.45;;;33.10;90.50;;;;;;5065619;28;20222;-55
2022/06/18 11:39:57;;;;;;;3.63;3.40;;;33.10;90.00;;;;;;5060852;28;20227;-55
2022/06/18 11:42:31;;;;;;;3.95;3.65;;;33.10;90.90;;;;;;5062458;28;20200;-56
2022/06/18 11:45:11;;;;;;;4.18;3.97;;;33.10;90.50;;;;;;5070509;28;20254;-54
2022/06/18 11:47:49;;;;;;;3.80;3.63;;;32.90;90.50;;;;;;5067184;28;20289;-56
2022/06/18 11:50:24;;;;;;;4.15;3.72;;;32.80;89.40;;;;;;5068707;28;20197;-54
2022/06/18 11:53:01;;;;;;;5.28;3.88;;;32.60;91.20;;;;;;5068742;28;20338;-56
2022/06/18 11:55:33;;;;;;;4.05;3.95;;;32.30;93.00;;;;;;5061284;28;20217;-56
2022/06/18 11:58:07;;;;;;;3.65;3.55;;;32.30;91.80;;;;;;5066564;28;20220;-56
2022/06/18 12:00:45;;;;;;;4.10;3.90;;;32.00;93.00;;;;;;5070120;28;20217;-56
2022/06/18 12:03:23;;;;;;;5.57;4.03;;;31.80;91.90;;;;;;5069737;28;20716;-56
2022/06/18 12:05:54;;;;;;;3.22;3.13;;;31.70;93.30;;;;;;5067237;28;20357;-56
2022/06/18 12:08:23;;;;;;;4.05;3.95;;;31.50;90.40;;;;;;5063123;28;20279;-54
2022/06/18 12:11:00;;;;;;;3.97;3.75;;;31.60;92.30;;;;;;5063555;28;20197;-54
2022/06/18 12:13:35;;;;;;;3.15;3.05;;;31.60;94.40;;;;;;5064198;28;20207;-54
2022/06/18 12:16:10;;;;;;;2.95;2.85;;;31.50;91.80;;;;;;5061421;28;20771;-55
2022/06/18 12:18:43;;;;;;;3.50;3.40;;;31.70;90.80;;;;;;5070394;28;20216;-56
2022/06/18 12:21:24;;;;;;;3.25;3.00;;;31.60;92.90;;;;;;5063755;28;20201;-56
2022/06/18 12:24:00;;;;;;;2.45;2.35;;;31.60;89.10;;;;;;5059262;28;20201;-56
2022/06/18 12:26:36;;;;;;;3.10;3.10;;;31.60;89.10;;;;;;5050911;28;20255;-54
2022/06/18 12:29:30;;;;;;;2.42;2.22;;;31.50;87.20;;;;;;5066151;28;20201;-54
2022/06/18 12:32:03;;;;;;;1.73;1.40;;;31.70;84.70;;;;;;5068942;28;20217;-56
2022/06/18 12:34:37;;;;;;;2.03;1.52;;;31.60;74.40;;;;;;5067498;28;20619;-54
2022/06/18 12:37:20;;;;;;;2.35;2.15;;;31.60;76.50;;;;;;5067107;28;20290;-56
2022/06/18 12:39:55;;;;;;;1.70;1.70;;;31.70;78.80;;;;;;5067024;28;20197;-54
2022/06/18 12:42:31;;;;;;;2.00;1.83;;;31.80;80.00;;;;;;5068809;28;20686;-55
2022/06/18 12:45:08;;;;;;;4.82;2.40;;;31.90;84.60;;;;;;5069442;28;20231;-56
2022/06/18 12:47:42;;;;;;;1.75;1.65;;;31.90;87.40;;;;;;5067551;28;20250;-54
2022/06/18 12:50:21;;;;;;;5.38;2.08;;;31.90;82.20;;;;;;5061173;28;20193;-54
2022/06/18 12:52:54;;;;;;;1.75;1.75;;;31.90;82.10;;;;;;5066264;28;20220;-54
2022/06/18 12:55:33;;;;;;;2.88;2.00;;;31.90;82.30;;;;;;5067476;28;20266;-54
2022/06/18 12:58:16;;;;;;;2.65;2.50;;;31.80;84.20;;;;;;5068914;28;20229;-54
2022/06/18 13:00:47;;;;;;;1.98;1.88;;;31.70;90.00;;;;;;5068388;28;20228;-54
2022/06/18 13:03:47;;;;;;;2.33;2.25;;;31.50;84.40;;;;;;5068157;28;20189;-54
2022/06/18 13:06:24;;;;;;;3.95;2.95;;;31.20;86.30;;;;;;5068616;28;20201;-56
2022/06/18 13:09:00;;;;;;;4.40;2.15;;;31.20;88.20;;;;;;5067992;28;20232;-55
2022/06/18 13:11:36;;;;;;;2.67;2.47;;;31.20;88.80;;;;;;5068934;28;20280;-54
2022/06/18 13:14:24;;;;;;;2.28;1.95;;;31.20;87.20;;;;;;5069023;28;20255;-54
2022/06/18 13:17:02;;;;;;;2.00;1.88;;;31.20;83.10;;;;;;5067755;28;20197;-54
2022/06/18 13:19:35;;;;;;;2.05;1.98;;;31.20;81.70;;;;;;5068317;28;20231;-55